createdAt,value
2018-09-01T00:05:15.525Z,27.2
2018-09-01T00:11:10.548Z,26.27
2018-09-01T00:17:05.558Z,25.36
2018-09-01T00:23:00.515Z,23.52
2018-09-01T00:28:55.529Z,19.98
2018-09-01T00:34:50.545Z,19.94
2018-09-01T00:40:45.528Z,22.82
2018-09-01T00:46:40.530Z,25.44
2018-09-01T00:52:35.539Z,28.88
2018-09-01T00:58:30.534Z,22.7
2018-09-01T01:04:25.575Z,18.65
2018-09-01T01:10:20.550Z,28.27
2018-09-01T01:16:15.564Z,23.35
2018-09-01T01:22:10.561Z,23.1
2018-09-01T01:28:05.554Z,24.34
2018-09-01T01:34:00.560Z,32.32
2018-09-01T01:39:55.553Z,29.31
2018-09-01T01:45:50.577Z,27.24
2018-09-01T01:51:45.581Z,23.18
2018-09-01T01:57:40.598Z,33.72
2018-09-01T02:03:35.583Z,27.01
2018-09-01T02:09:30.607Z,29.88
2018-09-01T02:15:25.602Z,28.02
2018-09-01T02:21:20.637Z,22.62
2018-09-01T02:27:15.599Z,26.28
2018-09-01T02:33:10.654Z,22.7
2018-09-01T02:39:05.615Z,25.94
2018-09-01T02:45:00.642Z,25.51
2018-09-01T02:50:55.628Z,26.08
2018-09-01T02:56:50.621Z,25.38
2018-09-01T03:02:45.668Z,27.51
2018-09-01T03:08:40.637Z,26.04
2018-09-01T03:14:35.638Z,26.89
2018-09-01T03:20:30.654Z,28.87
2018-09-01T03:26:25.664Z,30.85
2018-09-01T03:32:20.662Z,27.57
2018-09-01T03:38:15.670Z,25.96
2018-09-01T03:44:10.668Z,24.27
2018-09-01T03:50:05.664Z,29.3
2018-09-01T03:56:00.687Z,33.38
2018-09-01T04:01:55.691Z,26.17
2018-09-01T04:07:50.670Z,28.83
2018-09-01T04:13:45.667Z,29.64
2018-09-01T04:19:40.680Z,25.91
2018-09-01T04:25:35.684Z,29.74
2018-09-01T04:31:30.715Z,26.64
2018-09-01T04:37:25.721Z,27.31
2018-09-01T04:43:20.709Z,23.63
2018-09-01T04:49:15.704Z,28.2
2018-09-01T04:55:10.780Z,31.44
2018-09-01T05:01:05.952Z,30.96
2018-09-01T05:07:00.723Z,28.46
2018-09-01T05:12:55.750Z,32.81
2018-09-01T05:18:50.740Z,18.54
2018-09-01T05:24:45.736Z,7.95
2018-09-01T05:30:40.756Z,6.78
2018-09-01T05:36:35.856Z,8.04
2018-09-01T05:42:30.778Z,7.93
2018-09-01T05:48:25.745Z,11.91
2018-09-01T05:54:20.765Z,9.82
2018-09-01T06:00:15.759Z,15.13
2018-09-01T06:06:10.994Z,11.6
2018-09-01T06:12:05.778Z,10.08
2018-09-01T06:18:01.018Z,15.02
2018-09-01T06:23:55.788Z,10.71
2018-09-01T06:29:50.780Z,11.44
2018-09-01T06:35:45.794Z,8.77
2018-09-01T06:41:40.814Z,8.26
2018-09-01T06:47:35.805Z,10.75
2018-09-01T06:53:30.802Z,13.86
2018-09-01T06:59:25.825Z,14.47
2018-09-01T07:05:20.817Z,11.87
2018-09-01T07:11:15.829Z,14.53
2018-09-01T07:17:10.826Z,11.78
2018-09-01T07:23:05.827Z,13.97
2018-09-01T07:29:00.816Z,8.68
2018-09-01T07:34:55.828Z,9.13
2018-09-01T07:40:50.848Z,9.01
2018-09-01T07:46:45.838Z,10.5
2018-09-01T07:52:40.827Z,8.65
2018-09-01T07:58:35.856Z,10.59
2018-09-01T08:04:30.835Z,7.17
2018-09-01T08:10:25.848Z,9.05
2018-09-01T08:16:20.866Z,8.32
2018-09-01T08:22:15.862Z,8.91
2018-09-01T08:28:10.905Z,6.06
2018-09-01T08:34:05.907Z,9.26
2018-09-01T08:40:00.886Z,8.63
2018-09-01T08:45:55.917Z,6.19
2018-09-01T08:51:50.891Z,8.95
2018-09-01T08:57:45.910Z,8.98
2018-09-01T09:05:18.195Z,8.94
2018-09-01T09:11:13.206Z,8.33
2018-09-01T09:17:08.222Z,6.29
2018-09-01T09:23:03.203Z,9.37
2018-09-01T09:28:58.255Z,8.8
2018-09-01T09:34:53.237Z,7.69
2018-09-01T09:40:48.228Z,7.33
2018-09-01T09:46:43.226Z,10.36
2018-09-01T09:52:38.233Z,6.6
2018-09-01T09:58:33.247Z,10.91
2018-09-01T10:04:28.250Z,7.87
2018-09-01T10:10:23.247Z,10.18
2018-09-01T10:16:18.250Z,11.43
2018-09-01T10:22:13.294Z,7.02
2018-09-01T10:28:08.272Z,11.72
2018-09-01T10:34:03.281Z,8.6
2018-09-01T10:39:58.280Z,8.32
2018-09-01T10:45:53.370Z,9.54
2018-09-01T10:51:48.314Z,9.12
2018-09-01T10:57:43.297Z,10.07
2018-09-01T11:03:38.297Z,11.94
2018-09-01T11:09:33.351Z,14.48
2018-09-01T11:15:28.312Z,11.71
2018-09-01T11:21:23.343Z,8.58
2018-09-01T11:27:18.324Z,11.32
2018-09-01T11:33:13.348Z,16.18
2018-09-01T11:39:08.320Z,11.54
2018-09-01T11:45:03.330Z,13.11
2018-09-01T11:50:58.340Z,12.17
2018-09-01T11:56:53.351Z,7.57
2018-09-01T12:02:48.349Z,10.35
2018-09-01T12:08:43.395Z,13.69
2018-09-01T12:14:38.384Z,7.23
2018-09-01T12:20:33.351Z,7.75
2018-09-01T12:26:28.412Z,6.97
2018-09-01T12:32:23.362Z,7.79
2018-09-01T12:38:18.370Z,6.32
2018-09-01T12:44:13.393Z,4.94
2018-09-01T12:50:08.379Z,4.83
2018-09-01T12:56:03.398Z,5.29
2018-09-01T13:01:58.448Z,3.47
2018-09-01T13:07:53.469Z,4.26
2018-09-01T13:13:48.410Z,5.71
2018-09-01T13:19:43.443Z,4.89
2018-09-01T13:25:38.441Z,5.01
2018-09-01T13:31:33.433Z,4.43
2018-09-01T13:37:28.434Z,4.21
2018-09-01T13:43:23.487Z,4.23
2018-09-01T13:49:18.422Z,4.51
2018-09-01T13:55:13.480Z,3.91
2018-09-01T14:01:08.485Z,3.74
2018-09-01T14:07:03.466Z,4.23
2018-09-01T14:12:58.462Z,6.86
2018-09-01T14:18:53.474Z,5.15
2018-09-01T14:24:48.509Z,4.33
2018-09-01T14:30:43.500Z,3.4
2018-09-01T14:36:38.647Z,4.61
2018-09-01T14:42:33.476Z,4.89
2018-09-01T14:48:28.489Z,8.12
2018-09-01T14:54:23.483Z,6
2018-09-01T15:00:18.493Z,7.59
2018-09-01T15:06:13.549Z,4.42
2018-09-01T15:12:08.537Z,4.39
2018-09-01T15:18:03.502Z,6.25
2018-09-01T15:23:58.522Z,5.08
2018-09-01T15:29:53.509Z,7.3
2018-09-01T15:35:48.521Z,5.15
2018-09-01T15:41:43.581Z,7.23
2018-09-01T15:47:38.521Z,5.03
2018-09-01T15:53:33.568Z,4.84
2018-09-01T15:59:28.544Z,3.59
2018-09-01T16:05:23.580Z,5.65
2018-09-01T16:11:18.570Z,4
2018-09-01T16:17:13.577Z,4.47
2018-09-01T16:23:08.577Z,6.21
2018-09-01T16:29:03.570Z,4.25
2018-09-01T16:34:58.615Z,5.4
2018-09-01T16:40:53.576Z,5.12
2018-09-01T16:46:48.684Z,5.19
2018-09-01T16:52:43.615Z,4.32
2018-09-01T16:58:38.605Z,5.02
2018-09-01T17:04:33.595Z,4.89
2018-09-01T17:10:28.636Z,5.39
2018-09-01T17:16:23.610Z,12.8
2018-09-01T17:22:18.620Z,7.06
2018-09-01T17:28:13.631Z,6.66
2018-09-01T17:34:08.625Z,7.42
2018-09-01T17:40:03.674Z,25.63
2018-09-01T17:45:58.604Z,50.97
2018-09-01T17:51:53.695Z,51.25
2018-09-01T17:57:48.676Z,137.96
2018-09-01T18:03:43.636Z,6.77
2018-09-01T18:09:38.650Z,7.43
2018-09-01T18:15:33.673Z,9.74
2018-09-01T18:21:28.693Z,10.74
2018-09-01T18:27:23.669Z,5.9
2018-09-01T18:33:18.702Z,7.64
2018-09-01T18:39:13.689Z,7.21
2018-09-01T18:45:08.678Z,6.6
2018-09-01T18:51:03.708Z,4.68
2018-09-01T18:56:58.674Z,6.68
2018-09-01T19:02:53.682Z,5.42
2018-09-01T19:08:48.901Z,6.77
2018-09-01T19:14:43.721Z,6.23
2018-09-01T19:20:38.720Z,6.67
2018-09-01T19:26:33.737Z,7.76
2018-09-01T19:32:28.717Z,6.93
2018-09-01T19:38:23.714Z,7.34
2018-09-01T19:44:18.706Z,6.6
2018-09-01T19:50:13.725Z,5.67
2018-09-01T19:56:08.767Z,8.98
2018-09-01T20:02:03.771Z,8.48
2018-09-01T20:07:58.763Z,7.99
2018-09-01T20:13:53.810Z,10.12
2018-09-01T20:19:48.755Z,6.53
2018-09-01T20:25:43.824Z,5.77
2018-09-01T20:31:38.744Z,7.68
2018-09-01T20:37:33.753Z,5.03
2018-09-01T20:43:28.794Z,7.39
2018-09-01T20:49:23.767Z,8.38
2018-09-01T20:55:18.793Z,7.02
2018-09-01T21:01:13.769Z,6.16
2018-09-01T21:07:08.821Z,9.38
2018-09-01T21:13:03.791Z,7.84
2018-09-01T21:18:58.781Z,6.09
2018-09-01T21:24:53.804Z,8.26
2018-09-01T21:30:48.785Z,7.13
2018-09-01T21:36:43.795Z,11.08
2018-09-01T21:42:38.849Z,8.87
2018-09-01T21:48:33.806Z,5.01
2018-09-01T21:54:28.824Z,8.72
2018-09-01T22:00:23.873Z,6.87
2018-09-01T22:06:18.927Z,9.29
2018-09-01T22:12:13.841Z,9.15
2018-09-01T22:18:08.813Z,9.07
2018-09-01T22:24:03.881Z,7.09
2018-09-01T22:29:58.840Z,7.98
2018-09-01T22:35:53.844Z,8.86
2018-09-01T22:41:48.837Z,5.7
2018-09-01T22:47:43.895Z,8.48
2018-09-01T22:53:38.916Z,6.78
2018-09-01T22:59:33.885Z,11.01
2018-09-01T23:05:28.899Z,6.82
2018-09-01T23:11:23.888Z,6.19
2018-09-01T23:17:18.862Z,11.45
2018-09-01T23:23:13.996Z,9.29
2018-09-01T23:29:08.923Z,7.92
2018-09-01T23:35:03.980Z,12.42
2018-09-01T23:40:58.877Z,12.54
2018-09-01T23:46:53.898Z,15.71
2018-09-01T23:52:48.923Z,10.57
2018-09-01T23:58:43.892Z,11.17
